createdAt,value
2018-06-05T00:01:06.260Z,12.13
2018-06-05T00:03:34.780Z,12.73
2018-06-05T00:06:03.198Z,12.27
2018-06-05T00:08:31.667Z,13.37
2018-06-05T00:11:00.729Z,13.50
2018-06-05T00:13:29.105Z,12.23
2018-06-05T00:15:57.450Z,13.40
2018-06-05T00:18:25.843Z,13.10
2018-06-05T00:20:54.269Z,13.73
2018-06-05T00:23:22.624Z,12.10
2018-06-05T00:25:50.998Z,12.50
2018-06-05T00:28:19.352Z,13.97
2018-06-05T00:30:47.741Z,14.07
2018-06-05T00:33:16.159Z,13.60
2018-06-05T00:35:44.555Z,14.20
2018-06-05T00:38:15.530Z,14.03
2018-06-05T00:40:43.916Z,14.33
2018-06-05T00:43:12.338Z,13.67
2018-06-05T00:45:49.393Z,15.10
2018-06-05T00:48:18.029Z,14.87
2018-06-05T00:50:46.395Z,16.07
2018-06-05T00:53:14.788Z,16.83
2018-06-05T00:55:43.143Z,15.37
2018-06-05T00:58:12.179Z,17.67
2018-06-05T01:00:40.539Z,17.40
2018-06-05T01:03:08.884Z,16.00
2018-06-05T01:05:37.266Z,18.30
2018-06-05T01:08:05.688Z,18.43
2018-06-05T01:10:34.141Z,18.07
2018-06-05T01:13:02.623Z,18.10
2018-06-05T01:15:31.023Z,18.73
2018-06-05T01:17:59.540Z,18.17
2018-06-05T01:20:27.917Z,17.80
2018-06-05T01:22:56.316Z,16.57
2018-06-05T01:25:24.679Z,17.23
2018-06-05T01:27:53.014Z,16.20
2018-06-05T01:30:21.426Z,16.70
2018-06-05T01:32:49.765Z,17.43
2018-06-05T01:35:18.128Z,17.70
2018-06-05T01:37:46.534Z,18.07
2018-06-05T01:40:14.905Z,16.60
2018-06-05T01:42:44.071Z,15.77
2018-06-05T01:45:12.453Z,15.97
2018-06-05T01:47:40.841Z,14.90
2018-06-05T01:50:09.172Z,16.53
2018-06-05T01:52:37.586Z,17.80
2018-06-05T01:55:05.965Z,17.43
2018-06-05T01:57:34.338Z,19.40
2018-06-05T02:00:02.763Z,17.53
2018-06-05T02:02:31.140Z,18.77
2018-06-05T02:04:59.550Z,18.90
2018-06-05T02:07:27.896Z,20.73
2018-06-05T02:09:56.311Z,19.37
2018-06-05T02:12:24.669Z,22.37
2018-06-05T02:14:53.045Z,22.83
2018-06-05T02:17:21.426Z,20.20
2018-06-05T02:19:49.809Z,19.77
2018-06-05T02:22:18.207Z,19.70
2018-06-05T02:24:46.545Z,21.10
2018-06-05T02:27:14.944Z,21.87
2018-06-05T02:29:43.910Z,23.70
2018-06-05T02:32:12.306Z,22.50
2018-06-05T02:34:40.643Z,22.77
2018-06-05T02:37:09.024Z,20.93
2018-06-05T02:39:37.372Z,22.40
2018-06-05T02:42:05.706Z,21.33
2018-06-05T02:44:34.125Z,23.37
2018-06-05T02:47:02.469Z,22.73
2018-06-05T02:49:30.830Z,21.63
2018-06-05T02:51:59.219Z,22.40
2018-06-05T02:54:27.612Z,23.33
2018-06-05T02:56:56.011Z,25.47
2018-06-05T02:59:24.358Z,21.37
2018-06-05T03:01:53.148Z,23.73
2018-06-05T03:04:21.535Z,23.70
2018-06-05T03:06:49.940Z,22.70
2018-06-05T03:09:18.300Z,24.27
2018-06-05T03:11:46.607Z,23.80
2018-06-05T03:14:14.977Z,26.80
2018-06-05T03:16:43.482Z,25.70
2018-06-05T03:19:11.861Z,25.97
2018-06-05T03:21:40.286Z,24.50
2018-06-05T03:24:08.653Z,24.97
2018-06-05T03:26:37.046Z,25.40
2018-06-05T03:29:05.377Z,25.37
2018-06-05T03:31:33.802Z,24.47
2018-06-05T03:34:02.186Z,25.50
2018-06-05T03:36:30.626Z,24.60
2018-06-05T03:38:59.064Z,27.80
2018-06-05T03:41:27.405Z,26.27
2018-06-05T03:43:55.737Z,26.10
2018-06-05T03:46:24.065Z,27.83
2018-06-05T03:48:52.400Z,28.40
2018-06-05T03:51:20.828Z,28.07
2018-06-05T03:53:49.234Z,27.50
2018-06-05T03:56:17.981Z,28.60
2018-06-05T03:58:46.361Z,27.73
2018-06-05T04:01:14.741Z,28.37
2018-06-05T04:03:43.879Z,29.70
2018-06-05T04:06:12.237Z,29.03
2018-06-05T04:08:40.584Z,28.37
2018-06-05T04:11:08.974Z,27.40
2018-06-05T04:13:37.315Z,26.87
2018-06-05T04:16:06.437Z,26.10
2018-06-05T04:18:34.821Z,28.20
2018-06-05T04:21:03.134Z,24.77
2018-06-05T04:23:32.166Z,24.23
2018-06-05T04:26:00.544Z,24.20
2018-06-05T04:28:28.945Z,25.33
2018-06-05T04:30:57.297Z,25.30
2018-06-05T04:33:26.116Z,23.30
2018-06-05T04:35:54.517Z,24.13
2018-06-05T04:38:22.842Z,26.00
2018-06-05T04:40:51.229Z,26.77
2018-06-05T04:43:19.573Z,27.07
2018-06-05T04:45:47.895Z,25.10
2018-06-05T04:48:16.285Z,25.57
2018-06-05T04:50:44.611Z,26.33
2018-06-05T04:53:13.163Z,26.90
2018-06-05T04:55:41.469Z,28.30
2018-06-05T04:58:09.810Z,27.23
2018-06-05T05:00:38.221Z,26.80
2018-06-05T05:03:06.634Z,25.50
2018-06-05T05:05:35.791Z,26.43
2018-06-05T05:08:04.184Z,25.60
2018-06-05T05:10:32.560Z,24.13
2018-06-05T05:13:00.937Z,27.07
2018-06-05T05:15:29.324Z,27.70
2018-06-05T05:17:57.726Z,27.03
2018-06-05T05:20:26.297Z,26.73
2018-06-05T05:22:54.684Z,25.57
2018-06-05T05:25:23.079Z,26.70
2018-06-05T05:27:51.455Z,26.43
2018-06-05T05:30:19.850Z,25.77
2018-06-05T05:32:48.235Z,25.57
2018-06-05T05:35:16.599Z,25.80
2018-06-05T05:37:45.053Z,24.63
2018-06-05T05:40:13.384Z,24.60
2018-06-05T05:42:41.745Z,24.97
2018-06-05T05:45:10.102Z,23.63
2018-06-05T05:47:38.428Z,23.13
2018-06-05T05:50:06.887Z,24.00
2018-06-05T05:52:35.261Z,25.23
2018-06-05T05:55:03.753Z,23.30
2018-06-05T05:57:32.203Z,22.00
2018-06-05T06:00:00.263Z,22.83
2018-06-05T06:02:28.636Z,25.67
2018-06-05T06:04:56.987Z,23.10
2018-06-05T06:07:25.492Z,23.57
2018-06-05T06:09:53.923Z,24.17
2018-06-05T06:12:22.316Z,23.50
2018-06-05T06:14:50.741Z,23.73
2018-06-05T06:17:19.546Z,19.07
2018-06-05T06:19:47.980Z,23.93
2018-06-05T06:22:16.321Z,21.00
2018-06-05T06:24:44.852Z,22.03
2018-06-05T06:27:13.299Z,22.50
2018-06-05T06:29:41.659Z,21.43
2018-06-05T06:32:10.174Z,22.20
2018-06-05T06:34:38.576Z,25.37
2018-06-05T06:37:06.966Z,24.50
2018-06-05T06:39:35.414Z,25.00
2018-06-05T06:42:03.825Z,24.83
2018-06-05T06:44:32.258Z,25.93
2018-06-05T06:47:01.298Z,24.37
2018-06-05T06:49:29.662Z,25.60
2018-06-05T06:51:58.665Z,23.83
2018-06-05T06:54:27.064Z,23.83
2018-06-05T06:56:55.460Z,23.73
2018-06-05T06:59:23.895Z,21.83
2018-06-05T07:01:52.223Z,21.70
2018-06-05T07:04:20.735Z,20.73
2018-06-05T07:06:49.108Z,20.50
2018-06-05T07:09:17.512Z,22.80
2018-06-05T07:11:46.556Z,22.43
2018-06-05T07:14:14.961Z,22.80
2018-06-05T07:16:43.395Z,21.17
2018-06-05T07:19:11.852Z,22.17
2018-06-05T07:21:40.936Z,22.00
2018-06-05T07:24:09.354Z,21.77
2018-06-05T07:26:37.727Z,20.10
2018-06-05T07:29:05.818Z,21.97
2018-06-05T07:31:34.508Z,22.80
2018-06-05T07:34:02.985Z,20.23
2018-06-05T07:36:31.701Z,21.50
2018-06-05T07:39:00.037Z,22.57
2018-06-05T07:41:28.394Z,21.37
2018-06-05T07:43:56.738Z,22.47
2018-06-05T07:46:25.169Z,22.00
2018-06-05T07:48:53.603Z,20.83
2018-06-05T07:51:22.006Z,22.30
2018-06-05T07:53:50.526Z,21.87
2018-06-05T07:56:19.681Z,22.03
2018-06-05T07:58:48.083Z,24.43
2018-06-05T08:01:16.533Z,21.90
2018-06-05T08:03:44.951Z,21.83
2018-06-05T08:06:13.565Z,23.27
2018-06-05T08:08:41.973Z,23.17
2018-06-05T08:11:11.077Z,22.67
2018-06-05T08:13:39.431Z,20.80
2018-06-05T08:16:07.858Z,22.20
2018-06-05T08:18:36.270Z,20.60
2018-06-05T08:21:04.647Z,21.70
2018-06-05T08:23:33.040Z,22.50
2018-06-05T08:26:01.397Z,22.17
2018-06-05T08:28:29.754Z,23.90
2018-06-05T08:30:58.176Z,22.07
2018-06-05T08:33:26.597Z,22.03
2018-06-05T08:35:55.051Z,20.10
2018-06-05T08:38:23.481Z,20.70
2018-06-05T08:40:51.817Z,22.20
2018-06-05T08:43:20.228Z,21.27
2018-06-05T08:45:48.618Z,20.20
2018-06-05T08:48:17.027Z,22.57
2018-06-05T08:50:45.544Z,21.60
2018-06-05T08:53:13.895Z,21.80
2018-06-05T08:55:42.297Z,24.50
2018-06-05T08:58:10.626Z,19.57
2018-06-05T09:00:39.089Z,22.00
2018-06-05T09:03:07.461Z,21.50
2018-06-05T09:05:35.845Z,22.27
2018-06-05T09:08:04.219Z,22.30
2018-06-05T09:10:32.605Z,20.90
2018-06-05T09:13:01.001Z,21.40
2018-06-05T09:15:30.315Z,21.13
2018-06-05T09:17:58.695Z,21.20
2018-06-05T09:20:27.090Z,20.40
2018-06-05T09:22:55.432Z,20.20
2018-06-05T09:25:23.863Z,19.83
2018-06-05T09:27:52.285Z,20.90
2018-06-05T09:30:20.971Z,19.83
2018-06-05T09:32:49.326Z,19.27
2018-06-05T09:35:17.670Z,20.60
2018-06-05T09:37:46.056Z,19.57
2018-06-05T09:40:15.400Z,20.40
2018-06-05T09:42:43.760Z,19.83
2018-06-05T09:45:12.131Z,19.70
2018-06-05T09:47:40.533Z,19.67
2018-06-05T09:50:08.964Z,20.60
2018-06-05T09:52:37.337Z,20.17
2018-06-05T09:55:05.778Z,21.57
2018-06-05T09:57:34.199Z,19.63
2018-06-05T10:00:03.462Z,18.90
2018-06-05T10:02:31.887Z,18.50
2018-06-05T10:05:03.947Z,20.10
2018-06-05T10:07:33.357Z,21.50
2018-06-05T10:10:01.723Z,18.97
2018-06-05T10:12:30.389Z,20.60
2018-06-05T10:14:58.983Z,18.97
2018-06-05T10:17:27.388Z,20.00
2018-06-05T10:19:55.768Z,22.20
2018-06-05T10:22:24.148Z,17.63
2018-06-05T10:24:52.489Z,18.73
2018-06-05T10:27:20.844Z,18.97
2018-06-05T10:29:49.256Z,17.80
2018-06-05T10:32:17.756Z,18.60
2018-06-05T10:34:46.211Z,19.47
2018-06-05T10:37:14.594Z,19.07
2018-06-05T10:39:43.028Z,18.40
2018-06-05T10:42:11.446Z,18.77
2018-06-05T10:44:42.015Z,17.90
2018-06-05T10:47:10.379Z,15.80
2018-06-05T10:49:38.691Z,18.57
2018-06-05T10:52:07.142Z,16.90
2018-06-05T10:54:35.571Z,18.87
2018-06-05T10:57:03.929Z,18.30
2018-06-05T10:59:32.389Z,17.73
2018-06-05T11:02:00.770Z,17.93
2018-06-05T11:04:29.745Z,16.60
2018-06-05T11:06:58.124Z,18.13
2018-06-05T11:09:26.616Z,18.47
2018-06-05T11:11:55.006Z,17.07
2018-06-05T11:14:23.360Z,16.70
2018-06-05T11:16:51.735Z,15.07
2018-06-05T11:19:20.122Z,17.90
2018-06-05T11:21:48.546Z,17.57
2018-06-05T11:24:16.876Z,17.03
2018-06-05T11:26:45.257Z,18.20
2018-06-05T11:29:13.648Z,14.90
2018-06-05T11:31:42.012Z,17.00
2018-06-05T11:34:10.395Z,16.27
2018-06-05T11:36:38.766Z,16.10
2018-06-05T11:39:08.409Z,16.70
2018-06-05T11:41:38.793Z,16.00
2018-06-05T11:44:07.137Z,13.87
2018-06-05T11:46:36.110Z,16.03
2018-06-05T11:49:04.489Z,15.60
2018-06-05T11:51:33.780Z,15.53
2018-06-05T11:54:03.053Z,15.10
2018-06-05T11:56:31.430Z,15.60
2018-06-05T11:59:00.098Z,15.67
2018-06-05T12:01:28.561Z,13.73
2018-06-05T12:03:57.573Z,15.40
2018-06-05T12:06:26.837Z,15.53
2018-06-05T12:08:57.562Z,15.77
2018-06-05T12:11:26.058Z,14.50
2018-06-05T12:13:54.492Z,14.57
2018-06-05T12:16:22.907Z,14.80
2018-06-05T12:18:52.049Z,14.80
2018-06-05T12:21:20.470Z,14.37
2018-06-05T12:23:48.962Z,14.20
2018-06-05T12:26:17.355Z,14.00
2018-06-05T12:28:46.045Z,12.73
2018-06-05T12:31:15.701Z,13.30
2018-06-05T12:33:44.042Z,13.17
2018-06-05T12:36:12.551Z,13.30
2018-06-05T12:38:40.908Z,13.30
2018-06-05T12:41:09.608Z,12.00
2018-06-05T12:43:37.987Z,12.97
2018-06-05T12:46:06.384Z,11.50
2018-06-05T12:48:34.786Z,12.83
2018-06-05T12:51:04.023Z,12.40
2018-06-05T12:53:32.541Z,12.43
2018-06-05T12:56:00.965Z,12.00
2018-06-05T12:58:29.370Z,11.63
2018-06-05T13:00:57.757Z,12.03
2018-06-05T13:03:26.553Z,11.83
2018-06-05T13:05:54.692Z,12.03
2018-06-05T13:08:23.184Z,12.20
2018-06-05T13:10:52.700Z,11.50
2018-06-05T13:13:21.173Z,12.40
2018-06-05T13:15:49.550Z,12.07
2018-06-05T13:18:17.970Z,11.20
2018-06-05T13:20:46.373Z,11.93
2018-06-05T13:23:14.762Z,9.63
2018-06-05T13:25:43.177Z,10.90
2018-06-05T13:28:12.267Z,11.67
2018-06-05T13:30:40.679Z,10.77
2018-06-05T13:33:09.792Z,10.67
2018-06-05T13:35:38.240Z,10.33
2018-06-05T13:38:06.771Z,11.07
2018-06-05T13:40:35.239Z,10.73
2018-06-05T13:43:04.668Z,10.87
2018-06-05T13:45:33.250Z,10.13
2018-06-05T13:48:01.614Z,9.77
2018-06-05T13:50:30.127Z,10.80
2018-06-05T13:52:58.632Z,10.67
2018-06-05T13:55:27.165Z,9.93
2018-06-05T13:57:55.674Z,9.93
2018-06-05T14:00:24.134Z,9.40
2018-06-05T14:02:52.593Z,9.33
2018-06-05T14:05:21.686Z,8.77
2018-06-05T14:07:50.905Z,9.60
2018-06-05T14:10:19.457Z,8.80
2018-06-05T14:12:47.943Z,8.40
2018-06-05T14:15:16.483Z,10.13
2018-06-05T14:17:44.990Z,10.80
2018-06-05T14:20:13.713Z,9.80
2018-06-05T14:22:42.208Z,8.97
2018-06-05T14:25:11.471Z,9.73
2018-06-05T14:27:40.449Z,8.60
2018-06-05T14:30:08.868Z,9.13
2018-06-05T14:32:37.267Z,8.63
2018-06-05T14:35:06.031Z,7.90
2018-06-05T14:37:34.487Z,8.30
2018-06-05T14:40:04.486Z,8.47
2018-06-05T14:42:32.978Z,7.57
2018-06-05T14:45:01.745Z,8.20
2018-06-05T14:47:30.893Z,8.63
2018-06-05T14:49:59.836Z,7.20
2018-06-05T14:52:33.064Z,8.80
2018-06-05T14:55:01.521Z,7.90
2018-06-05T14:57:30.023Z,7.00
2018-06-05T14:59:58.498Z,7.60
2018-06-05T15:02:26.993Z,9.30
2018-06-05T15:04:56.285Z,8.23
2018-06-05T15:07:25.260Z,8.60
2018-06-05T15:09:53.679Z,7.97
2018-06-05T15:12:23.848Z,7.90
2018-06-05T15:14:52.304Z,8.93
2018-06-05T15:17:20.994Z,8.10
2018-06-05T15:19:49.787Z,8.60
2018-06-05T15:22:18.307Z,8.33
2018-06-05T15:24:46.921Z,8.40
2018-06-05T15:27:15.331Z,7.50
2018-06-05T15:29:43.757Z,7.50
2018-06-05T15:32:12.457Z,7.20
2018-06-05T15:34:41.147Z,6.83
2018-06-05T15:37:09.589Z,7.87
2018-06-05T15:39:38.130Z,7.93
2018-06-05T15:42:06.547Z,8.20
2018-06-05T15:44:34.932Z,8.10
2018-06-05T15:47:03.348Z,7.70
2018-06-05T15:49:31.788Z,7.77
2018-06-05T15:52:01.618Z,7.63
2018-06-05T15:54:30.128Z,7.83
2018-06-05T15:56:58.591Z,7.70
2018-06-05T15:59:29.536Z,7.87
2018-06-05T16:01:58.768Z,6.40
2018-06-05T16:04:29.103Z,7.40
2018-06-05T16:06:58.219Z,7.00
2018-06-05T16:09:26.639Z,6.93
2018-06-05T16:11:55.164Z,7.63
2018-06-05T16:14:24.137Z,6.50
2018-06-05T16:16:52.548Z,6.70
2018-06-05T16:19:20.998Z,6.90
2018-06-05T16:21:49.631Z,7.07
2018-06-05T16:24:18.142Z,6.80
2018-06-05T16:26:46.647Z,6.70
2018-06-05T16:29:15.028Z,7.03
2018-06-05T16:31:43.406Z,7.20
2018-06-05T16:34:11.847Z,7.20
2018-06-05T16:36:40.288Z,7.10
2018-06-05T16:39:08.908Z,7.20
2018-06-05T16:41:37.278Z,6.40
2018-06-05T16:44:05.787Z,6.77
2018-06-05T16:46:34.207Z,7.20
2018-06-05T16:49:02.603Z,7.20
2018-06-05T16:51:31.024Z,6.90
2018-06-05T16:53:59.458Z,6.53
2018-06-05T16:56:27.838Z,7.27
2018-06-05T16:58:56.355Z,7.07
2018-06-05T17:01:24.886Z,7.10
2018-06-05T17:03:53.035Z,6.97
2018-06-05T17:06:21.451Z,7.13
2018-06-05T17:08:49.805Z,6.30
2018-06-05T17:11:18.245Z,7.67
2018-06-05T17:13:46.670Z,6.40
2018-06-05T17:16:15.053Z,6.60
2018-06-05T17:18:44.265Z,6.27
2018-06-05T17:21:12.631Z,6.63
2018-06-05T17:23:41.027Z,6.67
2018-06-05T17:26:09.474Z,7.17
2018-06-05T17:28:37.841Z,6.47
2018-06-05T17:31:06.225Z,6.87
2018-06-05T17:33:34.640Z,6.60
2018-06-05T17:36:04.040Z,6.57
2018-06-05T17:38:32.494Z,6.80
2018-06-05T17:41:01.894Z,7.10
2018-06-05T17:43:30.293Z,7.73
2018-06-05T17:45:58.731Z,6.83
2018-06-05T17:48:27.152Z,6.60
2018-06-05T17:50:55.577Z,7.50
2018-06-05T17:53:24.601Z,7.10
2018-06-05T17:55:53.021Z,7.20
2018-06-05T17:58:21.519Z,7.13
2018-06-05T18:00:50.003Z,9.00
2018-06-05T18:03:18.442Z,8.20
2018-06-05T18:05:46.979Z,8.30
2018-06-05T18:08:15.352Z,8.53
2018-06-05T18:10:44.510Z,8.77
2018-06-05T18:13:12.935Z,8.30
2018-06-05T18:15:41.350Z,9.63
2018-06-05T18:18:09.924Z,10.27
2018-06-05T18:20:39.280Z,10.03
2018-06-05T18:23:07.747Z,10.33
2018-06-05T18:25:36.289Z,9.50
2018-06-05T18:28:04.676Z,11.00
2018-06-05T18:30:33.081Z,10.10
2018-06-05T18:33:01.461Z,10.57
2018-06-05T18:35:29.809Z,11.90
2018-06-05T18:37:58.237Z,12.53
2018-06-05T18:40:26.706Z,13.60
2018-06-05T18:42:55.179Z,14.23
2018-06-05T18:45:23.590Z,12.97
2018-06-05T18:47:51.977Z,13.57
2018-06-05T18:50:20.373Z,14.57
2018-06-05T18:52:48.518Z,14.57
2018-06-05T18:55:16.902Z,14.20
2018-06-05T18:57:47.331Z,14.30
2018-06-05T19:00:16.126Z,14.70
2018-06-05T19:02:44.555Z,15.47
2018-06-05T19:05:12.968Z,16.20
2018-06-05T19:07:41.381Z,15.67
2018-06-05T19:10:09.770Z,19.17
2018-06-05T19:12:38.181Z,16.97
2018-06-05T19:15:06.601Z,17.00
2018-06-05T19:17:35.001Z,16.93
2018-06-05T19:20:03.436Z,16.97
2018-06-05T19:22:31.877Z,16.27
2018-06-05T19:25:00.292Z,17.07
2018-06-05T19:27:28.684Z,17.10
2018-06-05T19:29:57.261Z,17.23
2018-06-05T19:32:25.652Z,16.97
2018-06-05T19:34:54.080Z,16.13
2018-06-05T19:37:22.456Z,16.17
2018-06-05T19:39:51.150Z,17.30
2018-06-05T19:42:19.559Z,18.90
2018-06-05T19:44:47.950Z,17.03
2018-06-05T19:47:16.395Z,17.33
2018-06-05T19:49:44.814Z,17.33
2018-06-05T19:52:13.590Z,16.20
2018-06-05T19:54:42.018Z,16.90
2018-06-05T19:57:10.394Z,18.60
2018-06-05T19:59:38.809Z,17.90
2018-06-05T20:02:07.343Z,18.07
2018-06-05T20:04:35.514Z,18.37
2018-06-05T20:07:03.962Z,18.67
2018-06-05T20:09:32.361Z,17.63
2018-06-05T20:12:00.718Z,19.30
2018-06-05T20:14:29.191Z,18.47
2018-06-05T20:16:57.680Z,17.80
2018-06-05T20:19:26.117Z,17.77
2018-06-05T20:21:54.484Z,18.80
2018-06-05T20:24:23.167Z,18.00
2018-06-05T20:26:51.580Z,18.27
2018-06-05T20:29:20.004Z,18.80
2018-06-05T20:31:48.357Z,18.90
2018-06-05T20:34:16.742Z,19.10
2018-06-05T20:36:45.118Z,17.87
2018-06-05T20:39:13.475Z,19.43
2018-06-05T20:41:41.896Z,19.30
2018-06-05T20:44:10.268Z,18.87
2018-06-05T20:46:39.501Z,20.93
2018-06-05T20:49:07.910Z,20.60
2018-06-05T20:51:36.306Z,19.87
2018-06-05T20:54:04.692Z,21.17
2018-06-05T20:56:33.425Z,21.60
2018-06-05T20:59:01.817Z,22.20
2018-06-05T21:01:30.190Z,21.17
2018-06-05T21:03:59.984Z,22.40
2018-06-05T21:06:28.345Z,22.33
2018-06-05T21:08:56.683Z,21.77
2018-06-05T21:11:25.072Z,23.50
2018-06-05T21:13:53.539Z,23.77
2018-06-05T21:16:21.884Z,23.23
2018-06-05T21:18:50.298Z,25.10
2018-06-05T21:21:18.646Z,24.93
2018-06-05T21:23:47.010Z,24.10
2018-06-05T21:26:15.364Z,26.20
2018-06-05T21:28:43.695Z,24.37
2018-06-05T21:31:12.091Z,25.13
2018-06-05T21:33:40.447Z,25.33
2018-06-05T21:36:08.829Z,24.07
2018-06-05T21:38:37.887Z,22.03
2018-06-05T21:41:06.247Z,25.07
2018-06-05T21:43:34.620Z,22.60
2018-06-05T21:46:02.925Z,24.97
2018-06-05T21:48:31.374Z,24.57
2018-06-05T21:51:00.635Z,24.00
2018-06-05T21:53:29.002Z,21.83
2018-06-05T21:55:57.468Z,21.43
2018-06-05T21:58:25.966Z,23.70
2018-06-05T22:00:54.388Z,21.30
2018-06-05T22:03:22.790Z,21.63
2018-06-05T22:05:51.235Z,23.17
2018-06-05T22:08:19.828Z,22.77
2018-06-05T22:10:54.262Z,22.50
2018-06-05T22:13:22.904Z,21.63
2018-06-05T22:15:51.327Z,21.00
2018-06-05T22:18:19.715Z,20.77
2018-06-05T22:20:48.092Z,22.70
2018-06-05T22:23:16.469Z,22.27
2018-06-05T22:25:44.851Z,20.47
2018-06-05T22:28:13.183Z,20.20
2018-06-05T22:30:42.121Z,19.90
2018-06-05T22:33:10.580Z,22.73
2018-06-05T22:35:38.902Z,22.17
2018-06-05T22:38:07.251Z,21.00
2018-06-05T22:40:35.607Z,21.97
2018-06-05T22:43:04.004Z,20.77
2018-06-05T22:45:32.412Z,20.10
2018-06-05T22:48:02.063Z,22.33
2018-06-05T22:50:30.497Z,22.20
2018-06-05T22:52:58.834Z,20.07
2018-06-05T22:55:27.211Z,19.53
2018-06-05T22:57:55.613Z,19.30
2018-06-05T23:00:31.553Z,21.17
2018-06-05T23:02:59.932Z,19.33
2018-06-05T23:05:28.376Z,19.70
2018-06-05T23:07:56.752Z,18.87
2018-06-05T23:10:25.189Z,17.77
2018-06-05T23:12:53.552Z,20.57
2018-06-05T23:15:21.892Z,21.53
2018-06-05T23:17:50.897Z,19.30
2018-06-05T23:20:19.202Z,20.50
2018-06-05T23:22:47.582Z,18.80
2018-06-05T23:25:15.916Z,18.67
2018-06-05T23:27:44.274Z,18.90
2018-06-05T23:30:12.666Z,18.53
2018-06-05T23:32:41.002Z,18.23
2018-06-05T23:35:09.376Z,19.13
2018-06-05T23:37:37.704Z,18.47
2018-06-05T23:40:06.078Z,17.77
2018-06-05T23:42:34.429Z,18.27
2018-06-05T23:45:02.780Z,18.83
2018-06-05T23:47:31.137Z,18.10
2018-06-05T23:49:59.467Z,18.33
2018-06-05T23:52:28.389Z,18.83
2018-06-05T23:54:56.756Z,18.83
2018-06-05T23:57:25.117Z,19.27
2018-06-05T23:59:53.516Z,17.60
